Terminal Aerodrome Forecast
Issued by NWS

Home | Current Version | Previous Version | Text Only | Print | Product List | Glossary Off
Versions: 1 2 3 4 5 6 7 8 9 10 11 12 13 14 15 16 17 18 19 20 21 22 23 24

216
FTUS43 KGRB 182342
TAFRHI
TAF
KRHI 182342Z 1900/1924 24011G18KT P6SM SCT200
     FM190200 27006KT P6SM BKN200
     FM191600 24010G18KT P6SM SCT250
     FM192200 21006KT P6SM SKC=

USA.gov is the U.S. government's official web portal to all federal, state and local government web resources and services.